createdAt,value
2022-08-09T00:01:43.189Z,99549.03
2022-08-09T00:05:03.480Z,99558.13
2022-08-09T00:08:10.158Z,99555.45
2022-08-09T00:11:24.864Z,99555.80
2022-08-09T00:14:37.879Z,99555.84
2022-08-09T00:18:07.757Z,99554.19
2022-08-09T00:21:04.548Z,99554.20
2022-08-09T00:24:17.729Z,99557.91
2022-08-09T00:27:31.387Z,99560.55
2022-08-09T00:30:53.572Z,99562.08
2022-08-09T00:34:05.166Z,99559.91
2022-08-09T00:37:17.100Z,99562.23
2022-08-09T00:40:31.059Z,99560.23
2022-08-09T00:44:14.160Z,99564.77
2022-08-09T00:47:05.055Z,99563.42
2022-08-09T00:50:14.570Z,99570.82
2022-08-09T00:53:27.721Z,99561.77
2022-08-09T00:56:39.326Z,99571.00
2022-08-09T00:59:53.171Z,99576.05
2022-08-09T01:03:12.690Z,99569.83
2022-08-09T01:06:53.506Z,99567.14
2022-08-09T01:09:56.448Z,99565.62
2022-08-09T01:13:17.017Z,99573.02
2022-08-09T01:16:47.411Z,99574.05
2022-08-09T01:20:03.146Z,99577.23
2022-08-09T01:24:01.902Z,99577.41
2022-08-09T01:27:02.589Z,99574.72
2022-08-09T01:30:28.673Z,99577.05
2022-08-09T01:33:37.418Z,99572.71
2022-08-09T01:36:48.719Z,99578.93
2022-08-09T01:40:04.878Z,99570.02
2022-08-09T01:43:17.737Z,99571.69
2022-08-09T01:46:34.707Z,99573.38
2022-08-09T01:49:50.849Z,99571.86
2022-08-09T01:53:19.141Z,99573.38
2022-08-09T01:56:19.482Z,99576.25
2022-08-09T01:59:32.646Z,99570.34
2022-08-09T02:02:50.432Z,99581.94
2022-08-09T02:06:06.435Z,99584.80
2022-08-09T02:09:20.317Z,99580.38
2022-08-09T02:12:39.296Z,99584.09
2022-08-09T02:15:56.390Z,99584.41
2022-08-09T02:19:06.473Z,99582.08
2022-08-09T02:22:31.617Z,99583.91
2022-08-09T02:25:49.399Z,99582.74
2022-08-09T02:29:03.708Z,99583.73
2022-08-09T02:32:18.604Z,99588.78
2022-08-09T02:36:02.860Z,99597.18
2022-08-09T02:38:51.287Z,99585.42
2022-08-09T02:42:07.841Z,99587.43
2022-08-09T02:45:21.797Z,99586.44
2022-08-09T02:48:37.966Z,99590.10
2022-08-09T02:51:53.916Z,99596.47
2022-08-09T02:55:21.095Z,99594.08
2022-08-09T02:58:35.934Z,99592.42
2022-08-09T03:02:05.745Z,99609.68
2022-08-09T03:04:53.731Z,99602.47
2022-08-09T03:08:06.833Z,99603.30
2022-08-09T03:12:04.241Z,99611.66
2022-08-09T03:14:36.937Z,99611.48
2022-08-09T03:17:54.010Z,99614.17
2022-08-09T03:21:05.274Z,99618.21
2022-08-09T03:24:31.274Z,99618.21
2022-08-09T03:27:31.504Z,99615.84
2022-08-09T03:30:46.046Z,99609.97
2022-08-09T03:34:03.202Z,99606.77
2022-08-09T03:37:56.128Z,99615.84
2022-08-09T03:40:30.860Z,99615.19
2022-08-09T03:43:42.525Z,99603.13
2022-08-09T03:46:54.081Z,99606.15
2022-08-09T03:50:09.101Z,99603.33
2022-08-09T03:53:24.182Z,99610.19
2022-08-09T03:56:37.974Z,99615.24
2022-08-09T03:59:54.514Z,99609.53
2022-08-09T04:03:06.779Z,99607.19
2022-08-09T04:06:18.841Z,99608.34
2022-08-09T04:09:48.074Z,99612.05
2022-08-09T04:12:53.087Z,99617.56
2022-08-09T04:16:19.919Z,99608.52
2022-08-09T04:19:43.090Z,99615.55
2022-08-09T04:22:33.382Z,99615.89
2022-08-09T04:25:51.973Z,99619.06
2022-08-09T04:29:01.390Z,99621.41
2022-08-09T04:32:12.940Z,99625.25
2022-08-09T04:35:26.291Z,99623.72
2022-08-09T04:38:39.885Z,99623.58
2022-08-09T04:41:53.549Z,99619.42
2022-08-09T04:45:05.921Z,99626.16
2022-08-09T04:48:17.671Z,99629.72
2022-08-09T04:51:29.383Z,99627.05
2022-08-09T04:54:43.465Z,99631.13
2022-08-09T04:58:01.454Z,99622.23
2022-08-09T05:01:16.309Z,99623.58
2022-08-09T05:04:22.973Z,99616.69
2022-08-09T05:07:36.627Z,99624.24
2022-08-09T05:10:48.367Z,99626.56
2022-08-09T05:13:59.900Z,99629.06
2022-08-09T05:17:15.419Z,99632.44
2022-08-09T05:20:29.537Z,99632.44
2022-08-09T05:23:54.103Z,99640.84
2022-08-09T05:26:53.361Z,99628.75
2022-08-09T05:30:06.388Z,99630.88
2022-08-09T05:33:19.051Z,99634.78
2022-08-09T05:36:30.509Z,99636.93
2022-08-09T05:39:45.877Z,99641.17
2022-08-09T05:42:57.634Z,99624.51
2022-08-09T05:46:10.894Z,99637.81
2022-08-09T05:50:19.607Z,99643.53
2022-08-09T05:52:38.575Z,99640.00
2022-08-09T05:55:50.657Z,99648.72
2022-08-09T05:59:03.782Z,99642.97
2022-08-09T06:02:17.114Z,99642.97
2022-08-09T06:05:30.654Z,99654.56
2022-08-09T06:08:42.976Z,99651.69
2022-08-09T06:11:57.152Z,99648.81
2022-08-09T06:15:10.438Z,99649.78
2022-08-09T06:18:24.760Z,99649.27
2022-08-09T06:21:36.052Z,99641.61
2022-08-09T06:24:49.660Z,99646.55
2022-08-09T06:28:03.784Z,99640.41
2022-08-09T06:31:16.638Z,99642.05
2022-08-09T06:34:29.913Z,99644.44
2022-08-09T06:37:52.871Z,99637.20
2022-08-09T06:40:56.249Z,99635.41
2022-08-09T06:44:08.636Z,99632.11
2022-08-09T06:47:20.312Z,99620.36
2022-08-09T06:50:33.627Z,99624.83
2022-08-09T06:53:45.888Z,99631.52
2022-08-09T06:56:59.438Z,99626.52
2022-08-09T07:00:50.843Z,99633.35
2022-08-09T07:03:29.026Z,99633.20
2022-08-09T07:06:41.703Z,99639.63
2022-08-09T07:10:04.070Z,99648.74
2022-08-09T07:13:27.208Z,99645.58
2022-08-09T07:16:39.631Z,99640.42
2022-08-09T07:19:34.668Z,99642.08
2022-08-09T07:22:53.233Z,99637.15
2022-08-09T07:26:02.654Z,99635.38
2022-08-09T07:29:14.035Z,99638.44
2022-08-09T07:32:33.487Z,99640.83
2022-08-09T07:35:54.019Z,99640.88
2022-08-09T07:39:00.991Z,99643.30
2022-08-09T07:42:09.606Z,99640.92
2022-08-09T07:45:36.965Z,99642.59
2022-08-09T07:48:37.089Z,99647.19
2022-08-09T07:52:05.049Z,99643.17
2022-08-09T07:55:09.554Z,99646.13
2022-08-09T07:58:18.001Z,99644.51
2022-08-09T08:01:33.117Z,99645.68
2022-08-09T08:04:48.974Z,99642.03
2022-08-09T08:09:01.897Z,99649.45
2022-08-09T08:12:09.385Z,99639.59
2022-08-09T08:14:26.030Z,99641.95
2022-08-09T08:17:53.722Z,99644.09
2022-08-09T08:20:52.411Z,99639.35
2022-08-09T08:24:11.776Z,99630.66
2022-08-09T08:27:18.582Z,99645.72
2022-08-09T08:30:30.744Z,99642.41
2022-08-09T08:33:52.868Z,99649.47
2022-08-09T08:36:58.437Z,99648.36
2022-08-09T08:40:12.567Z,99646.95
2022-08-09T08:43:27.090Z,99650.28
2022-08-09T08:46:59.980Z,99649.55
2022-08-09T08:49:59.350Z,99650.28
2022-08-09T08:53:16.120Z,99651.79
2022-08-09T08:56:28.488Z,99655.39
2022-08-09T08:59:46.859Z,99652.20
2022-08-09T09:02:59.464Z,99647.69
2022-08-09T09:06:11.377Z,99638.86
2022-08-09T09:09:58.148Z,99640.67
2022-08-09T09:12:39.124Z,99638.89
2022-08-09T09:15:51.854Z,99644.92
2022-08-09T09:19:37.318Z,99644.58
2022-08-09T09:22:28.571Z,99647.90
2022-08-09T09:26:01.443Z,99656.23
2022-08-09T09:29:03.891Z,99642.70
2022-08-09T09:32:15.906Z,99644.14
2022-08-09T09:35:27.723Z,99646.97
2022-08-09T09:38:56.495Z,99649.20
2022-08-09T09:42:11.866Z,99651.02
2022-08-09T09:45:26.307Z,99647.30
2022-08-09T09:48:37.711Z,99647.41
2022-08-09T09:51:51.561Z,99642.91
2022-08-09T09:55:24.329Z,99642.40
2022-08-09T09:58:29.144Z,99636.55
2022-08-09T10:01:43.191Z,99638.16
2022-08-09T10:05:11.751Z,99636.05
2022-08-09T10:08:29.942Z,99640.83
2022-08-09T10:12:00.528Z,99638.86
2022-08-09T10:15:17.545Z,99640.09
2022-08-09T10:18:29.618Z,99631.78
2022-08-09T10:21:52.368Z,99627.38
2022-08-09T10:25:11.367Z,99635.59
2022-08-09T10:28:19.731Z,99637.98
2022-08-09T10:34:46.000Z,99619.42
2022-08-09T10:37:59.944Z,99622.81
2022-08-09T10:41:13.477Z,99615.02
2022-08-09T10:44:30.639Z,99623.70
2022-08-09T10:48:20.357Z,99628.11
2022-08-09T10:51:16.927Z,99622.56
2022-08-09T10:54:32.523Z,99620.66
2022-08-09T10:57:45.197Z,99612.00
2022-08-09T11:03:02.915Z,99607.37
2022-08-09T11:04:32.472Z,99615.91
2022-08-09T11:07:57.447Z,99606.60
2022-08-09T11:11:08.789Z,99613.83
2022-08-09T11:14:38.200Z,99618.66
2022-08-09T11:18:02.844Z,99616.09
2022-08-09T11:21:10.008Z,99615.80
2022-08-09T11:24:21.700Z,99617.94
2022-08-09T11:28:02.662Z,99619.07
2022-08-09T11:30:53.706Z,99613.43
2022-08-09T11:34:11.117Z,99608.06
2022-08-09T11:37:41.121Z,99610.03
2022-08-09T11:40:46.596Z,99593.84
2022-08-09T11:43:58.543Z,99594.19
2022-08-09T11:47:10.944Z,99589.00
2022-08-09T11:50:56.657Z,99588.94
2022-08-09T11:53:58.745Z,99590.27
2022-08-09T11:56:54.786Z,99599.87
2022-08-09T12:00:16.504Z,99599.52
2022-08-09T12:03:50.508Z,99601.70
2022-08-09T12:06:53.092Z,99597.89
2022-08-09T12:09:58.182Z,99589.28
2022-08-09T12:14:07.507Z,99575.31
2022-08-09T12:16:37.353Z,99578.36
2022-08-09T12:19:43.183Z,99581.26
2022-08-09T12:22:57.016Z,99575.70
2022-08-09T12:26:08.565Z,99571.26
2022-08-09T12:29:33.769Z,99567.69
2022-08-09T12:32:41.137Z,99566.09
2022-08-09T12:35:53.829Z,99564.91
2022-08-09T12:39:07.788Z,99565.08
2022-08-09T12:42:20.611Z,99564.20
2022-08-09T12:45:38.513Z,99561.16
2022-08-09T12:48:49.190Z,99553.05
2022-08-09T12:52:03.827Z,99551.64
2022-08-09T12:56:16.129Z,99545.47
2022-08-09T12:58:32.794Z,99549.02
2022-08-09T13:01:49.923Z,99550.94
2022-08-09T13:05:10.081Z,99550.92
2022-08-09T13:08:40.293Z,99538.70
2022-08-09T13:11:42.489Z,99534.59
2022-08-09T13:14:55.251Z,99534.88
2022-08-09T13:18:17.779Z,99536.73
2022-08-09T13:22:38.459Z,99539.47
2022-08-09T13:24:54.310Z,99538.58
2022-08-09T13:28:03.829Z,99528.46
2022-08-09T13:32:14.841Z,99529.66
2022-08-09T13:34:32.080Z,99528.14
2022-08-09T13:37:51.835Z,99524.91
2022-08-09T13:41:51.800Z,99515.33
2022-08-09T13:44:19.912Z,99547.92
2022-08-09T13:47:43.982Z,99544.69
2022-08-09T13:50:48.262Z,99546.37
2022-08-09T13:54:03.263Z,99543.36
2022-08-09T13:57:35.518Z,99545.19
2022-08-09T14:00:30.317Z,99544.99
2022-08-09T14:04:03.655Z,99542.80
2022-08-09T14:07:04.179Z,99534.77
2022-08-09T14:10:37.341Z,99535.39
2022-08-09T14:14:22.320Z,99531.73
2022-08-09T14:16:48.763Z,99544.73
2022-08-09T14:20:00.640Z,99538.95
2022-08-09T14:23:20.239Z,99544.79
2022-08-09T14:26:31.659Z,99551.66
2022-08-09T14:30:34.701Z,99547.82
2022-08-09T14:32:56.957Z,99550.67
2022-08-09T14:36:19.676Z,99550.77
2022-08-09T14:39:45.395Z,99545.00
2022-08-09T14:42:41.197Z,99538.65
2022-08-09T14:46:55.972Z,99545.91
2022-08-09T14:49:10.601Z,99538.63
2022-08-09T14:52:21.043Z,99533.54
2022-08-09T14:55:35.011Z,99538.91
2022-08-09T14:58:46.620Z,99535.61
2022-08-09T15:01:58.345Z,99538.34
2022-08-09T15:05:11.591Z,99541.37
2022-08-09T15:08:25.652Z,99543.00
2022-08-09T15:11:37.165Z,99540.33
2022-08-09T15:14:48.842Z,99540.45
2022-08-09T15:18:02.691Z,99542.05
2022-08-09T15:22:01.724Z,99538.77
2022-08-09T15:24:29.023Z,99538.15
2022-08-09T15:27:47.914Z,99545.47
2022-08-09T15:31:01.954Z,99548.04
2022-08-09T15:34:33.114Z,99551.59
2022-08-09T15:37:57.305Z,99556.89
2022-08-09T15:40:56.462Z,99551.02
2022-08-09T15:44:08.754Z,99555.50
2022-08-09T15:47:23.567Z,99557.83
2022-08-09T15:50:34.555Z,99562.13
2022-08-09T15:54:06.380Z,99557.92
2022-08-09T15:57:01.869Z,99555.05
2022-08-09T16:00:25.552Z,99553.00
2022-08-09T16:03:38.251Z,99553.38
2022-08-09T16:06:50.516Z,99557.18
2022-08-09T16:10:04.829Z,99556.98
2022-08-09T16:13:20.939Z,99554.46
2022-08-09T16:16:31.766Z,99552.38
2022-08-09T16:19:49.466Z,99548.83
2022-08-09T16:22:58.559Z,99554.50
2022-08-09T16:26:20.027Z,99558.92
2022-08-09T16:29:37.662Z,99556.41
2022-08-09T16:32:55.384Z,99559.80
2022-08-09T16:36:14.499Z,99556.85
2022-08-09T16:39:26.058Z,99545.36
2022-08-09T16:42:38.966Z,99556.88
2022-08-09T16:45:53.764Z,99553.76
2022-08-09T16:49:17.604Z,99553.98
2022-08-09T16:52:20.079Z,99547.92
2022-08-09T16:56:00.134Z,99556.08
2022-08-09T16:58:49.835Z,99555.89
2022-08-09T17:01:59.920Z,99561.11
2022-08-09T17:05:20.047Z,99561.95
2022-08-09T17:08:44.991Z,99565.52
2022-08-09T17:11:51.374Z,99566.80
2022-08-09T17:15:00.524Z,99559.50
2022-08-09T17:18:15.161Z,99569.47
2022-08-09T17:21:29.117Z,99571.58
2022-08-09T17:24:41.328Z,99585.56
2022-08-09T17:27:55.260Z,99589.73
2022-08-09T17:31:07.014Z,99577.39
2022-08-09T17:34:59.801Z,99583.86
2022-08-09T17:38:02.220Z,99592.82
2022-08-09T17:40:50.391Z,99587.38
2022-08-09T17:44:47.810Z,99588.17
2022-08-09T17:47:16.439Z,99596.24
2022-08-09T17:50:36.986Z,99599.73
2022-08-09T17:53:51.520Z,99607.81
2022-08-09T17:56:59.231Z,99607.34
2022-08-09T18:00:15.344Z,99609.96
2022-08-09T18:03:30.376Z,99614.84
2022-08-09T18:06:49.620Z,99615.20
2022-08-09T18:10:04.244Z,99626.82
2022-08-09T18:13:53.706Z,99628.77
2022-08-09T18:16:30.297Z,99639.94
2022-08-09T18:20:58.424Z,99626.41
2022-08-09T18:22:54.467Z,99639.88
2022-08-09T18:26:06.676Z,99637.13
2022-08-09T18:30:39.172Z,99657.69
2022-08-09T18:32:34.083Z,99654.34
2022-08-09T18:35:58.662Z,99650.98
2022-08-09T18:39:02.652Z,99667.31
2022-08-09T18:42:15.518Z,99660.78
2022-08-09T18:46:47.765Z,99658.39
2022-08-09T18:48:42.342Z,99670.94
2022-08-09T18:51:58.209Z,99670.59
2022-08-09T18:55:13.630Z,99674.05
2022-08-09T18:58:32.468Z,99672.11
2022-08-09T19:01:43.506Z,99675.56
2022-08-09T19:05:03.279Z,99673.16
2022-08-09T19:08:10.670Z,99677.13
2022-08-09T19:11:19.275Z,99678.73
2022-08-09T19:14:33.154Z,99676.58
2022-08-09T19:17:56.406Z,99676.66
2022-08-09T19:21:02.542Z,99675.75
2022-08-09T19:24:37.210Z,99684.02
2022-08-09T19:27:29.279Z,99686.14
2022-08-09T19:30:44.212Z,99686.88
2022-08-09T19:33:56.087Z,99686.30
2022-08-09T19:37:08.300Z,99682.28
2022-08-09T19:40:22.116Z,99679.97
2022-08-09T19:44:00.859Z,99681.66
2022-08-09T19:46:50.339Z,99687.97
2022-08-09T19:50:08.176Z,99686.63
2022-08-09T19:53:15.977Z,99690.04
2022-08-09T19:56:29.685Z,99685.36
2022-08-09T19:59:59.161Z,99684.70
2022-08-09T20:04:29.817Z,99693.02
2022-08-09T20:06:23.428Z,99688.88
2022-08-09T20:09:45.773Z,99701.02
2022-08-09T20:12:46.002Z,99703.39
2022-08-09T22:12:06.550Z,99725.20
2022-08-09T22:14:54.840Z,99722.99
2022-08-09T22:18:13.858Z,99727.68
2022-08-09T22:21:50.308Z,99724.02
2022-08-09T22:32:29.667Z,99720.27
2022-08-09T22:39:46.934Z,99709.46
2022-08-09T22:42:39.879Z,99724.20
2022-08-09T22:48:15.100Z,99713.80
2022-08-09T22:49:23.436Z,99720.32
2022-08-09T22:52:35.263Z,99715.59
2022-08-09T22:56:30.973Z,99720.78
2022-08-09T22:59:58.050Z,99717.71
2022-08-09T23:02:31.521Z,99721.77
2022-08-09T23:05:45.877Z,99723.59
2022-08-09T23:08:59.407Z,99724.22
2022-08-09T23:12:12.430Z,99724.86
2022-08-09T23:15:24.089Z,99716.67
2022-08-09T23:18:47.804Z,99719.83
2022-08-09T23:22:11.284Z,99724.04
2022-08-09T23:25:22.957Z,99717.61
2022-08-09T23:28:42.453Z,99723.56
2022-08-09T23:32:05.141Z,99725.56
2022-08-09T23:35:19.867Z,99724.81
2022-08-09T23:38:31.451Z,99721.67
2022-08-09T23:41:46.222Z,99722.00
2022-08-09T23:45:09.043Z,99717.84
2022-08-09T23:51:45.838Z,99716.64
2022-08-09T23:55:05.719Z,99724.45
2022-08-09T23:58:24.243Z,99737.02
